Time;durP1;ratioP1;P1;durP2;ratioP2;P2;SDS_P1;SDS_P2;PMS_P1;PMS_P2;Temp;Humidity;BMP_temperature;BMP_pressure;BME280_temperature;BME280_humidity;BME280_pressure;Samples;Min_cycle;Max_cycle;Signal;HPM_P1;HPM_P2
2022/10/31 00:01:27;;;;;;;32.63;16.80;;;13.70;99.90;;;;;;4993251;28;20046;-74
2022/10/31 00:03:53;;;;;;;28.48;16.25;;;13.60;99.90;;;;;;4994251;28;20404;-75
2022/10/31 00:06:19;;;;;;;27.75;17.40;;;13.80;99.90;;;;;;4994476;28;20045;-74
2022/10/31 00:08:46;;;;;;;30.90;17.63;;;13.50;99.90;;;;;;4993026;28;20045;-74
2022/10/31 00:11:12;;;;;;;29.67;18.20;;;13.60;99.90;;;;;;4993022;28;20046;-75
2022/10/31 00:13:37;;;;;;;33.47;18.98;;;13.70;99.90;;;;;;4992765;28;20389;-74
2022/10/31 00:16:03;;;;;;;31.75;19.02;;;13.60;99.90;;;;;;4992995;28;20093;-74
2022/10/31 00:18:29;;;;;;;30.30;17.80;;;13.70;99.90;;;;;;4992838;28;20042;-74
2022/10/31 00:21:01;;;;;;;38.10;19.05;;;13.40;99.90;;;;;;4992250;28;20074;-74
2022/10/31 00:23:26;;;;;;;29.23;17.70;;;13.40;99.90;;;;;;4992503;28;20035;-75
2022/10/31 00:25:52;;;;;;;28.75;18.20;;;13.50;99.90;;;;;;4989636;28;20355;-74
2022/10/31 00:28:17;;;;;;;30.67;18.33;;;13.40;99.90;;;;;;4992253;28;20030;-74
2022/10/31 00:30:43;;;;;;;30.52;17.92;;;13.50;99.90;;;;;;4992835;28;20038;-74
2022/10/31 00:33:08;;;;;;;33.20;16.70;;;13.60;99.90;;;;;;4992315;28;20034;-74
2022/10/31 00:35:34;;;;;;;29.33;17.77;;;13.30;99.90;;;;;;4992922;28;20034;-74
2022/10/31 00:37:59;;;;;;;35.40;17.40;;;13.30;99.90;;;;;;4993691;28;20069;-74
2022/10/31 00:40:25;;;;;;;28.20;16.63;;;13.30;99.90;;;;;;4994170;28;20034;-74
2022/10/31 00:42:51;;;;;;;29.15;16.23;;;13.40;99.90;;;;;;4992230;28;20073;-74
2022/10/31 00:45:16;;;;;;;26.48;16.38;;;13.30;99.90;;;;;;4993891;28;20117;-74
2022/10/31 00:47:42;;;;;;;27.75;16.27;;;13.30;99.90;;;;;;4993695;28;20121;-74
2022/10/31 00:50:08;;;;;;;26.75;16.08;;;13.20;99.90;;;;;;4992331;28;20583;-74
2022/10/31 00:52:34;;;;;;;28.92;18.08;;;13.20;99.90;;;;;;4993134;28;20647;-74
2022/10/31 00:54:59;;;;;;;30.13;17.48;;;13.20;99.90;;;;;;4992318;28;20096;-74
2022/10/31 00:57:25;;;;;;;26.77;16.35;;;13.10;99.90;;;;;;4992251;28;20093;-74
2022/10/31 00:59:50;;;;;;;32.40;16.75;;;13.40;99.90;;;;;;4992090;28;20053;-74
2022/10/31 01:02:16;;;;;;;34.17;16.40;;;13.10;99.90;;;;;;4993297;28;20049;-74
2022/10/31 01:04:41;;;;;;;32.97;18.08;;;13.20;99.90;;;;;;4993269;28;20046;-74
2022/10/31 01:07:07;;;;;;;31.25;16.95;;;13.00;99.90;;;;;;4992328;28;20054;-74
2022/10/31 01:09:32;;;;;;;29.20;15.73;;;13.20;99.90;;;;;;4991951;28;20086;-74
2022/10/31 01:11:58;;;;;;;27.88;17.23;;;13.10;99.90;;;;;;4991843;28;20042;-74
2022/10/31 01:14:23;;;;;;;33.00;16.63;;;13.10;99.90;;;;;;4991689;28;20034;-74
2022/10/31 01:16:49;;;;;;;29.48;16.17;;;13.00;99.90;;;;;;4991756;28;20035;-74
2022/10/31 01:19:14;;;;;;;35.28;17.67;;;13.00;99.90;;;;;;4992924;28;20142;-74
2022/10/31 01:21:40;;;;;;;32.97;16.75;;;13.20;99.90;;;;;;4991748;28;20042;-74
2022/10/31 01:24:06;;;;;;;27.40;16.95;;;13.20;99.90;;;;;;4991725;28;20068;-74
2022/10/31 01:26:33;;;;;;;32.38;17.15;;;13.20;99.90;;;;;;4993160;28;20530;-74
2022/10/31 01:29:02;;;;;;;31.80;17.08;;;13.10;99.90;;;;;;4992858;28;20073;-74
2022/10/31 01:31:31;;;;;;;30.90;17.20;;;13.10;99.90;;;;;;4992761;28;20050;-74
2022/10/31 01:33:57;;;;;;;28.85;15.82;;;13.00;99.90;;;;;;4991169;28;20157;-74
2022/10/31 01:36:32;;;;;;;28.48;16.30;;;12.90;99.90;;;;;;4991499;28;20089;-74
2022/10/31 01:39:00;;;;;;;28.20;15.68;;;13.10;99.90;;;;;;4992908;28;20038;-74
2022/10/31 01:41:29;;;;;;;27.48;15.38;;;13.10;99.90;;;;;;4992838;28;20062;-74
2022/10/31 01:44:00;;;;;;;27.05;15.40;;;13.10;99.90;;;;;;4992438;28;20488;-74
2022/10/31 01:46:40;;;;;;;28.92;16.25;;;13.10;99.90;;;;;;4991326;28;20046;-74
2022/10/31 01:49:30;;;;;;;25.10;15.85;;;13.00;99.90;;;;;;4992567;28;20043;-74
2022/10/31 01:52:12;;;;;;;27.60;14.68;;;13.20;99.90;;;;;;4991992;28;20145;-74
2022/10/31 01:54:41;;;;;;;28.05;15.23;;;13.00;99.90;;;;;;4991377;28;20396;-74
2022/10/31 01:57:11;;;;;;;25.13;15.57;;;13.10;99.90;;;;;;4992391;28;20116;-74
2022/10/31 01:59:42;;;;;;;25.08;14.13;;;12.90;99.90;;;;;;4991107;28;20034;-74
2022/10/31 02:02:08;;;;;;;25.30;14.02;;;13.10;99.90;;;;;;4992591;28;20046;-74
2022/10/31 02:04:35;;;;;;;30.58;14.07;;;13.10;99.90;;;;;;4991168;28;20050;-74
2022/10/31 02:07:18;;;;;;;24.83;13.73;;;13.20;99.90;;;;;;4991086;28;20042;-74
2022/10/31 02:09:46;;;;;;;31.42;14.48;;;13.10;99.90;;;;;;4991051;28;20051;-74
2022/10/31 02:12:12;;;;;;;26.45;14.27;;;13.10;99.90;;;;;;4992353;28;20081;-74
2022/10/31 02:14:39;;;;;;;24.85;13.52;;;12.90;99.90;;;;;;4990806;28;20041;-74
2022/10/31 02:17:05;;;;;;;22.38;13.30;;;13.00;99.90;;;;;;4992373;28;20104;-74
2022/10/31 02:19:35;;;;;;;22.20;12.80;;;12.80;99.90;;;;;;4990934;28;20046;-74
2022/10/31 02:22:10;;;;;;;31.73;14.15;;;12.80;99.90;;;;;;4990901;28;20088;-74
2022/10/31 02:25:03;;;;;;;26.83;14.55;;;13.00;99.90;;;;;;4992338;28;20042;-74
2022/10/31 02:28:05;;;;;;;18.88;12.02;;;13.00;99.90;;;;;;4990993;28;20042;-74
2022/10/31 02:31:01;;;;;;;22.90;14.18;;;12.90;99.90;;;;;;4990842;28;20046;-74
2022/10/31 02:33:55;;;;;;;26.30;14.30;;;12.70;99.90;;;;;;4990634;28;20050;-74
2022/10/31 02:36:28;;;;;;;29.00;14.13;;;12.90;99.90;;;;;;4990970;28;20055;-74
2022/10/31 02:39:12;;;;;;;24.25;14.15;;;12.80;99.90;;;;;;4990976;28;20053;-74
2022/10/31 02:41:50;;;;;;;22.90;14.23;;;12.90;99.90;;;;;;4992121;28;20129;-74
2022/10/31 02:44:45;;;;;;;26.08;14.30;;;12.90;99.90;;;;;;4991712;28;20411;-74
2022/10/31 02:47:19;;;;;;;20.83;13.27;;;12.60;99.90;;;;;;4994690;28;20057;-74
2022/10/31 02:49:48;;;;;;;23.63;13.35;;;12.60;99.90;;;;;;4994559;28;20057;-74
2022/10/31 02:52:18;;;;;;;28.60;15.60;;;12.80;99.90;;;;;;4995793;28;20043;-74
2022/10/31 02:54:46;;;;;;;22.77;14.05;;;12.70;99.90;;;;;;4994481;28;20050;-74
2022/10/31 02:57:13;;;;;;;26.40;15.18;;;12.70;99.90;;;;;;4994760;28;20050;-74
2022/10/31 02:59:45;;;;;;;26.40;15.75;;;12.70;99.90;;;;;;4994262;28;20113;-74
2022/10/31 03:02:20;;;;;;;24.25;14.27;;;12.50;99.90;;;;;;4994454;28;20048;-74
2022/10/31 03:04:51;;;;;;;25.00;14.10;;;12.60;99.90;;;;;;4994340;28;20643;-74
2022/10/31 03:07:23;;;;;;;21.92;13.13;;;12.60;99.90;;;;;;4995656;28;20042;-74
2022/10/31 03:10:13;;;;;;;23.42;13.65;;;12.50;99.90;;;;;;4994437;28;20411;-74
2022/10/31 03:12:54;;;;;;;22.92;13.07;;;12.50;99.90;;;;;;4977615;28;20042;-74
2022/10/31 03:15:25;;;;;;;25.27;14.65;;;12.30;99.90;;;;;;4995432;28;20429;-74
2022/10/31 03:17:59;;;;;;;25.20;16.65;;;12.20;99.90;;;;;;4994116;28;20496;-74
2022/10/31 03:20:36;;;;;;;29.98;20.27;;;12.20;99.90;;;;;;4994355;28;20443;-74
2022/10/31 03:23:03;;;;;;;29.83;19.20;;;12.30;99.90;;;;;;4995191;28;20042;-74
2022/10/31 03:25:31;;;;;;;31.27;18.77;;;12.20;99.90;;;;;;4995393;28;20042;-74
2022/10/31 03:27:59;;;;;;;30.35;19.77;;;12.20;99.90;;;;;;4995069;28;20124;-74
2022/10/31 03:30:24;;;;;;;29.92;18.77;;;12.20;99.90;;;;;;4993980;28;20046;-74
2022/10/31 03:32:56;;;;;;;27.92;18.35;;;12.10;99.90;;;;;;4994700;28;20121;-74
2022/10/31 03:35:25;;;;;;;22.85;16.63;;;12.10;99.90;;;;;;4993795;28;20143;-74
2022/10/31 03:37:52;;;;;;;26.58;17.40;;;12.10;99.90;;;;;;4993716;28;20058;-74
2022/10/31 03:40:21;;;;;;;24.67;16.70;;;12.00;99.90;;;;;;4995186;28;20066;-74
2022/10/31 03:43:20;;;;;;;28.08;16.90;;;12.00;99.90;;;;;;4993424;28;20088;-74
2022/10/31 03:45:47;;;;;;;22.02;15.80;;;11.80;99.90;;;;;;4986291;28;20501;-74
2022/10/31 03:48:18;;;;;;;23.65;14.48;;;11.80;99.90;;;;;;4993534;28;20058;-74
2022/10/31 03:50:49;;;;;;;27.00;15.43;;;11.80;99.90;;;;;;4994874;28;20046;-74
2022/10/31 03:53:22;;;;;;;27.95;16.48;;;11.90;99.90;;;;;;4993194;28;20042;-74
2022/10/31 03:56:02;;;;;;;25.25;15.48;;;11.90;99.90;;;;;;4992341;28;20053;-74
2022/10/31 03:58:37;;;;;;;26.33;16.52;;;11.80;99.90;;;;;;4994613;28;20053;-74
2022/10/31 04:01:05;;;;;;;25.95;16.05;;;11.70;99.90;;;;;;4993443;28;20042;-74
2022/10/31 04:03:34;;;;;;;25.40;15.30;;;11.70;99.90;;;;;;4994376;28;20034;-74
2022/10/31 04:06:05;;;;;;;23.00;15.52;;;11.70;99.90;;;;;;4993296;28;20046;-73
2022/10/31 04:08:37;;;;;;;26.98;16.08;;;11.70;99.90;;;;;;4993113;28;20046;-74
2022/10/31 04:11:04;;;;;;;26.10;16.02;;;11.80;99.90;;;;;;4993477;28;20077;-74
2022/10/31 04:13:34;;;;;;;25.73;16.55;;;11.80;99.90;;;;;;4992886;28;20500;-74
2022/10/31 04:15:59;;;;;;;26.92;17.45;;;11.80;99.90;;;;;;4993488;28;20525;-74
2022/10/31 04:18:26;;;;;;;26.30;16.92;;;11.70;99.90;;;;;;4993287;28;20117;-74
2022/10/31 04:21:01;;;;;;;30.35;17.15;;;11.60;99.90;;;;;;4992936;28;20038;-74
2022/10/31 04:23:28;;;;;;;26.38;17.00;;;11.70;99.90;;;;;;4992706;28;20094;-74
2022/10/31 04:25:54;;;;;;;26.85;17.63;;;11.60;99.90;;;;;;4992855;28;20129;-74
2022/10/31 04:28:20;;;;;;;28.58;17.52;;;11.60;99.90;;;;;;4993890;28;20070;-74
2022/10/31 04:30:46;;;;;;;33.97;18.15;;;11.70;99.90;;;;;;4993055;28;20056;-74
2022/10/31 04:33:11;;;;;;;33.90;19.65;;;11.70;99.90;;;;;;4993738;28;20038;-74
2022/10/31 04:35:37;;;;;;;28.17;17.63;;;11.60;99.90;;;;;;4992685;28;20046;-74
2022/10/31 04:38:02;;;;;;;29.33;18.33;;;11.50;99.90;;;;;;4992848;28;20133;-74
2022/10/31 04:40:28;;;;;;;31.92;18.77;;;11.60;99.90;;;;;;4992578;28;20038;-74
2022/10/31 04:42:53;;;;;;;28.55;19.17;;;11.50;99.90;;;;;;4993590;28;20046;-74
2022/10/31 04:45:20;;;;;;;26.40;18.83;;;11.50;99.90;;;;;;4992839;28;20558;-74
2022/10/31 04:47:45;;;;;;;30.35;18.52;;;11.60;99.90;;;;;;4993670;28;20104;-74
2022/10/31 04:50:11;;;;;;;31.48;17.98;;;11.40;99.90;;;;;;4992412;28;20078;-74
2022/10/31 04:52:40;;;;;;;23.73;17.42;;;11.40;99.90;;;;;;4992082;28;20133;-74
2022/10/31 04:55:06;;;;;;;23.75;16.95;;;11.40;99.90;;;;;;4993638;28;20035;-74
2022/10/31 04:57:32;;;;;;;27.48;15.93;;;11.50;99.90;;;;;;4992264;28;20034;-74
2022/10/31 04:59:57;;;;;;;27.75;17.25;;;11.50;99.90;;;;;;4992516;28;20655;-74
2022/10/31 05:02:23;;;;;;;24.85;16.25;;;11.30;99.90;;;;;;4993356;28;20049;-74
2022/10/31 05:04:48;;;;;;;26.25;16.02;;;11.30;99.90;;;;;;4993107;28;20101;-74
2022/10/31 05:07:14;;;;;;;26.70;16.45;;;11.40;99.90;;;;;;4994148;28;20101;-74
2022/10/31 05:09:39;;;;;;;25.23;17.10;;;11.20;99.90;;;;;;4992093;28;20042;-74
2022/10/31 05:12:05;;;;;;;24.58;15.82;;;11.30;99.90;;;;;;4975725;28;20046;-74
2022/10/31 05:14:30;;;;;;;21.25;15.15;;;11.20;99.90;;;;;;4991893;28;20125;-74
2022/10/31 05:16:56;;;;;;;23.58;15.57;;;11.20;99.90;;;;;;4991822;28;20579;-74
2022/10/31 05:19:21;;;;;;;23.70;15.68;;;11.20;99.90;;;;;;4991833;28;20065;-74
2022/10/31 05:21:47;;;;;;;22.88;15.45;;;11.20;99.90;;;;;;4991820;28;20034;-74
2022/10/31 05:24:12;;;;;;;20.00;14.95;;;11.20;99.90;;;;;;4992867;28;20073;-74
2022/10/31 05:26:38;;;;;;;17.50;13.57;;;11.30;99.90;;;;;;4993016;28;20046;-74
2022/10/31 05:29:03;;;;;;;17.95;12.88;;;11.00;99.90;;;;;;4992802;28;20046;-74
2022/10/31 05:31:29;;;;;;;20.30;12.85;;;11.10;99.90;;;;;;4992816;28;20047;-73
2022/10/31 05:33:54;;;;;;;17.45;12.88;;;11.10;99.90;;;;;;4992472;28;20046;-73
2022/10/31 05:36:20;;;;;;;18.80;13.23;;;11.00;99.90;;;;;;4992783;28;20049;-74
2022/10/31 05:38:45;;;;;;;15.07;12.13;;;11.10;99.90;;;;;;4991416;28;20038;-73
2022/10/31 05:41:11;;;;;;;19.83;13.10;;;11.00;99.90;;;;;;4992615;28;20046;-73
2022/10/31 05:43:36;;;;;;;15.18;11.07;;;10.90;99.90;;;;;;4991211;28;20082;-72
2022/10/31 05:46:02;;;;;;;16.35;11.32;;;10.90;99.90;;;;;;4991415;28;20117;-72
2022/10/31 05:48:28;;;;;;;13.27;9.95;;;10.90;99.90;;;;;;4991295;28;20049;-72
2022/10/31 05:50:53;;;;;;;13.98;11.15;;;10.90;99.90;;;;;;4992502;28;20039;-72
2022/10/31 05:53:19;;;;;;;15.43;9.63;;;10.80;99.90;;;;;;4992462;28;20038;-73
2022/10/31 05:55:44;;;;;;;14.25;9.45;;;10.70;99.90;;;;;;4991141;28;20050;-73
2022/10/31 05:58:10;;;;;;;12.35;10.48;;;10.80;99.90;;;;;;4991449;28;20042;-73
2022/10/31 06:00:36;;;;;;;13.82;11.40;;;10.70;99.90;;;;;;4992492;28;20042;-73
2022/10/31 06:03:05;;;;;;;11.77;9.70;;;10.50;99.90;;;;;;4992109;28;20537;-73
2022/10/31 06:05:31;;;;;;;9.85;8.25;;;10.60;99.90;;;;;;4991431;28;20060;-73
2022/10/31 06:07:57;;;;;;;11.40;8.80;;;10.50;99.90;;;;;;4991359;28;20057;-73
2022/10/31 06:10:22;;;;;;;13.48;9.88;;;10.60;99.90;;;;;;4991045;28;20404;-73
2022/10/31 06:12:49;;;;;;;13.68;10.23;;;10.60;99.90;;;;;;4990641;28;20038;-73
2022/10/31 06:15:15;;;;;;;11.65;9.02;;;10.50;99.90;;;;;;4995947;28;20381;-73
2022/10/31 06:17:40;;;;;;;13.43;10.38;;;10.60;99.90;;;;;;5010784;28;20044;-73
2022/10/31 06:20:07;;;;;;;17.25;12.20;;;10.50;99.90;;;;;;5011068;28;20407;-72
2022/10/31 06:22:33;;;;;;;21.38;14.95;;;10.50;99.90;;;;;;5011425;28;20496;-72
2022/10/31 06:24:58;;;;;;;23.27;15.63;;;10.50;99.90;;;;;;5010564;28;20048;-72
2022/10/31 06:27:24;;;;;;;18.42;14.52;;;10.50;99.90;;;;;;5002573;28;20113;-72
2022/10/31 06:29:50;;;;;;;19.67;14.00;;;10.50;99.90;;;;;;5006512;28;20088;-72
2022/10/31 06:32:16;;;;;;;17.77;13.50;;;10.40;99.90;;;;;;5010260;28;20053;-73
2022/10/31 06:34:42;;;;;;;15.98;13.48;;;10.50;99.90;;;;;;5026725;28;20040;-73
2022/10/31 06:37:11;;;;;;;17.73;13.60;;;10.60;99.90;;;;;;5011650;28;20488;-75
2022/10/31 06:39:37;;;;;;;21.70;15.20;;;10.40;99.90;;;;;;5009882;28;20044;-78
2022/10/31 06:42:03;;;;;;;19.00;14.00;;;10.40;99.90;;;;;;5010260;28;20042;-78
2022/10/31 06:44:29;;;;;;;20.23;14.18;;;10.40;99.90;;;;;;5010056;28;20096;-78
2022/10/31 06:46:55;;;;;;;29.02;14.75;;;10.40;99.90;;;;;;5010632;28;20050;-78
2022/10/31 06:49:21;;;;;;;17.65;12.45;;;10.50;99.90;;;;;;5010575;28;20042;-78
2022/10/31 06:51:50;;;;;;;18.10;13.60;;;10.30;99.90;;;;;;5010318;28;20045;-78
2022/10/31 06:54:16;;;;;;;20.50;12.40;;;10.40;99.90;;;;;;5009929;28;20069;-78
2022/10/31 06:56:41;;;;;;;47.80;12.73;;;10.50;99.90;;;;;;5010267;28;20033;-78
2022/10/31 06:59:07;;;;;;;28.40;12.55;;;10.30;99.90;;;;;;5010313;28;20084;-78
2022/10/31 07:01:33;;;;;;;15.27;10.80;;;10.40;99.90;;;;;;5010152;28;20520;-78
2022/10/31 07:03:58;;;;;;;19.80;11.93;;;10.40;99.90;;;;;;5011085;28;20042;-78
2022/10/31 07:06:24;;;;;;;19.88;14.20;;;10.30;99.90;;;;;;5011493;28;20052;-78
2022/10/31 07:08:50;;;;;;;19.02;13.30;;;10.30;99.90;;;;;;5011351;28;20512;-78
2022/10/31 07:11:15;;;;;;;15.07;12.52;;;10.40;99.90;;;;;;5010061;28;20078;-78
2022/10/31 07:13:41;;;;;;;20.27;13.43;;;10.30;99.90;;;;;;5009699;28;20100;-78
2022/10/31 07:16:07;;;;;;;19.40;14.48;;;10.30;99.90;;;;;;5010748;28;20176;-79
2022/10/31 07:18:33;;;;;;;22.25;15.30;;;10.40;99.90;;;;;;5010795;28;20076;-79
2022/10/31 07:20:58;;;;;;;26.10;15.10;;;10.50;99.90;;;;;;5010331;28;20046;-78
2022/10/31 07:23:24;;;;;;;19.50;14.70;;;10.30;99.90;;;;;;5009821;28;20125;-78
2022/10/31 07:25:55;;;;;;;18.85;15.30;;;10.30;99.90;;;;;;5010330;28;20034;-79
2022/10/31 07:28:21;;;;;;;23.55;17.67;;;10.30;99.90;;;;;;5009798;28;20046;-78
2022/10/31 07:30:54;;;;;;;23.42;18.10;;;10.40;99.90;;;;;;5028130;28;20048;-78
2022/10/31 07:33:20;;;;;;;;;;;10.50;99.90;;;;;;5013861;28;20512;-78
2022/10/31 07:35:46;;;;;;;24.55;17.30;;;10.40;99.90;;;;;;5013841;28;19924;-78
2022/10/31 07:38:13;;;;;;;27.80;18.73;;;10.40;99.90;;;;;;5013583;28;20121;-79
2022/10/31 07:40:40;;;;;;;21.40;17.35;;;10.30;99.90;;;;;;5013583;28;20404;-78
2022/10/31 07:43:05;;;;;;;27.90;19.80;;;10.30;99.90;;;;;;5012979;28;20057;-78
2022/10/31 07:45:31;;;;;;;27.90;20.55;;;10.50;99.90;;;;;;5013515;28;20038;-79
2022/10/31 07:47:57;;;;;;;35.03;21.92;;;10.60;99.90;;;;;;5013032;28;20062;-78
2022/10/31 07:50:27;;;;;;;25.08;19.10;;;10.60;99.90;;;;;;5014578;28;20046;-79
2022/10/31 07:53:08;;;;;;;33.05;20.27;;;10.70;99.90;;;;;;4996477;28;20123;-78
2022/10/31 07:55:35;;;;;;;28.55;20.13;;;10.50;99.90;;;;;;4996708;28;20044;-78
2022/10/31 07:58:09;;;;;;;30.13;22.15;;;10.80;99.90;;;;;;5016667;28;20535;-79
2022/10/31 08:00:36;;;;;;;28.20;20.67;;;10.60;99.90;;;;;;5014399;28;20046;-80
2022/10/31 08:03:04;;;;;;;40.20;22.67;;;10.90;99.90;;;;;;5015708;28;20046;-79
2022/10/31 08:05:32;;;;;;;32.28;23.02;;;11.00;99.90;;;;;;5015076;28;20096;-79
2022/10/31 08:07:58;;;;;;;166.65;38.60;;;11.00;99.90;;;;;;5014829;28;20052;-79
2022/10/31 08:10:24;;;;;;;47.33;24.73;;;10.90;99.90;;;;;;5014207;28;20042;-79
2022/10/31 08:12:57;;;;;;;38.47;25.13;;;11.20;99.90;;;;;;5014339;28;20034;-80
2022/10/31 08:15:23;;;;;;;45.92;25.17;;;11.30;99.90;;;;;;5014088;28;20038;-79
2022/10/31 08:17:48;;;;;;;98.38;30.48;;;11.20;99.90;;;;;;5013835;28;20030;-79
2022/10/31 08:20:14;;;;;;;34.50;25.23;;;11.20;99.90;;;;;;5013345;28;20048;-81
2022/10/31 08:22:40;;;;;;;30.10;22.95;;;11.20;99.90;;;;;;5013407;28;20439;-79
2022/10/31 08:25:05;;;;;;;36.80;22.33;;;11.40;99.90;;;;;;5013180;28;20092;-79
2022/10/31 08:27:31;;;;;;;34.30;24.08;;;11.40;99.90;;;;;;5012653;28;20038;-80
2022/10/31 08:29:56;;;;;;;40.22;23.67;;;11.50;99.90;;;;;;5012728;28;20454;-79
2022/10/31 08:32:22;;;;;;;29.95;22.48;;;11.50;99.90;;;;;;5012312;28;20038;-79
2022/10/31 08:34:47;;;;;;;34.03;22.73;;;11.60;99.90;;;;;;5012449;28;20044;-79
2022/10/31 08:37:18;;;;;;;34.97;26.10;;;11.70;99.90;;;;;;5012392;28;20121;-79
2022/10/31 08:39:44;;;;;;;30.80;22.70;;;12.00;99.90;;;;;;5012259;28;20057;-79
2022/10/31 08:42:09;;;;;;;40.72;27.92;;;12.00;99.90;;;;;;5012021;28;20045;-80
2022/10/31 08:44:34;;;;;;;32.30;23.85;;;12.20;99.90;;;;;;5012118;28;20045;-79
2022/10/31 08:47:00;;;;;;;32.60;23.02;;;12.30;99.90;;;;;;5012767;28;20459;-79
2022/10/31 08:49:26;;;;;;;33.20;23.38;;;12.00;99.90;;;;;;5012718;28;20104;-80
2022/10/31 08:51:51;;;;;;;38.33;25.42;;;12.30;99.90;;;;;;5012410;28;20128;-79
2022/10/31 08:54:17;;;;;;;34.85;24.20;;;12.30;99.90;;;;;;5012378;28;20128;-79
2022/10/31 08:56:42;;;;;;;32.92;23.40;;;12.10;99.90;;;;;;5012150;28;20502;-78
2022/10/31 08:59:08;;;;;;;34.22;22.67;;;12.40;99.90;;;;;;5013352;28;20037;-79
2022/10/31 09:01:33;;;;;;;32.03;23.40;;;12.10;99.90;;;;;;5011820;28;20042;-78
2022/10/31 09:03:59;;;;;;;29.55;22.10;;;12.20;99.90;;;;;;5011486;28;20049;-77
2022/10/31 09:06:24;;;;;;;30.58;22.02;;;12.40;99.90;;;;;;5011673;28;20480;-78
2022/10/31 09:08:50;;;;;;;35.33;23.02;;;12.20;99.90;;;;;;5011604;28;20041;-78
2022/10/31 09:11:15;;;;;;;40.00;24.67;;;12.30;99.90;;;;;;5011539;28;20047;-78
2022/10/31 09:13:41;;;;;;;33.58;23.83;;;12.30;99.90;;;;;;5011244;28;20034;-78
2022/10/31 09:16:07;;;;;;;35.55;25.35;;;12.30;99.90;;;;;;5011706;28;20081;-78
2022/10/31 09:18:32;;;;;;;33.70;25.42;;;12.10;99.90;;;;;;5011348;28;20073;-78
2022/10/31 09:20:59;;;;;;;35.63;24.25;;;12.20;99.90;;;;;;5011421;28;20045;-77
2022/10/31 09:23:25;;;;;;;40.50;25.23;;;12.40;99.90;;;;;;5011134;28;20484;-77
2022/10/31 09:25:52;;;;;;;35.78;24.38;;;12.50;99.90;;;;;;5011892;28;20073;-78
2022/10/31 09:28:20;;;;;;;40.67;25.92;;;12.30;99.90;;;;;;5012591;28;20045;-78
2022/10/31 09:30:48;;;;;;;37.63;25.58;;;12.30;99.90;;;;;;5011329;28;20487;-78
2022/10/31 09:33:14;;;;;;;36.17;24.90;;;12.60;99.90;;;;;;5027269;28;20566;-78
2022/10/31 09:35:40;;;;;;;39.45;26.52;;;12.40;99.90;;;;;;5011122;28;20041;-78
2022/10/31 09:38:25;;;;;;;33.63;24.33;;;12.50;99.90;;;;;;5011374;28;20503;-78
2022/10/31 09:41:23;;;;;;;33.95;24.05;;;12.40;99.90;;;;;;5010821;28;20037;-78
2022/10/31 09:44:19;;;;;;;36.95;24.52;;;12.50;99.90;;;;;;5010701;28;20045;-78
2022/10/31 09:47:00;;;;;;;38.72;23.65;;;12.80;99.90;;;;;;5011013;28;20038;-78
2022/10/31 09:49:53;;;;;;;35.85;24.98;;;12.60;99.90;;;;;;5010961;28;20045;-79
2022/10/31 09:52:35;;;;;;;33.72;23.60;;;12.70;99.90;;;;;;5010808;28;20128;-78
2022/10/31 09:55:06;;;;;;;39.13;23.88;;;13.00;99.90;;;;;;5012264;28;20050;-78
2022/10/31 09:57:36;;;;;;;34.92;24.00;;;13.10;99.90;;;;;;5011276;28;20497;-78
2022/10/31 10:00:04;;;;;;;31.45;22.65;;;13.10;99.90;;;;;;5012033;28;20034;-79
2022/10/31 10:02:43;;;;;;;35.78;22.40;;;13.00;99.90;;;;;;5027107;28;20038;-78
2022/10/31 10:05:17;;;;;;;32.00;21.42;;;13.00;99.90;;;;;;5010760;28;20052;-78
2022/10/31 10:08:10;;;;;;;41.15;24.48;;;13.30;99.90;;;;;;5010717;28;20121;-78
2022/10/31 10:10:50;;;;;;;33.10;22.33;;;13.20;99.90;;;;;;5010820;28;20099;-78
2022/10/31 10:13:47;;;;;;;31.90;21.10;;;13.30;99.90;;;;;;5010292;28;20157;-78
2022/10/31 10:16:32;;;;;;;35.75;23.80;;;13.20;99.90;;;;;;5011015;28;20046;-79
2022/10/31 10:19:22;;;;;;;34.88;22.83;;;13.20;99.90;;;;;;5010483;28;20034;-78
2022/10/31 10:22:14;;;;;;;29.25;21.52;;;13.20;99.90;;;;;;5010793;28;20077;-78
2022/10/31 10:25:13;;;;;;;36.40;22.08;;;13.30;99.90;;;;;;5010779;28;20037;-80
2022/10/31 10:28:00;;;;;;;33.25;21.98;;;13.40;99.90;;;;;;5010906;28;20492;-78
2022/10/31 10:30:34;;;;;;;28.83;20.73;;;13.70;99.90;;;;;;5011917;28;20046;-78
2022/10/31 10:33:04;;;;;;;28.33;20.23;;;13.70;99.90;;;;;;5011482;28;20088;-77
2022/10/31 10:35:36;;;;;;;36.15;21.63;;;13.80;99.90;;;;;;5010433;28;20045;-77
2022/10/31 10:38:14;;;;;;;32.72;21.90;;;13.60;99.90;;;;;;5010231;28;20042;-77
2022/10/31 10:40:39;;;;;;;32.03;22.67;;;13.80;99.90;;;;;;5010621;28;20053;-77
2022/10/31 10:43:24;;;;;;;32.10;21.25;;;13.60;99.90;;;;;;5010095;28;20057;-77
2022/10/31 10:49:34;;;;;;;31.45;19.90;;;13.80;99.90;;;;;;5008546;28;20114;-77
2022/10/31 10:52:13;;;;;;;26.35;18.85;;;13.80;99.90;;;;;;5010703;28;20053;-77
2022/10/31 10:55:06;;;;;;;27.48;17.58;;;14.00;99.90;;;;;;5010675;28;20124;-78
2022/10/31 10:58:01;;;;;;;23.42;15.85;;;14.00;99.90;;;;;;5027198;28;20104;-78
2022/10/31 11:00:31;;;;;;;30.08;17.70;;;14.00;99.90;;;;;;5010703;28;20046;-77
2022/10/31 11:02:57;;;;;;;24.35;16.65;;;14.30;99.90;;;;;;5010306;28;20595;-77
2022/10/31 11:05:36;;;;;;;26.80;17.08;;;14.20;99.90;;;;;;5028223;28;20037;-77
2022/10/31 11:08:04;;;;;;;26.15;19.30;;;14.60;99.90;;;;;;5014010;28;20049;-77
2022/10/31 11:10:29;;;;;;;28.70;18.60;;;14.40;99.90;;;;;;5013843;28;20115;-77
2022/10/31 11:13:04;;;;;;;25.80;17.08;;;14.40;99.90;;;;;;5013424;28;20038;-77
2022/10/31 11:15:36;;;;;;;26.40;17.23;;;14.40;99.90;;;;;;5013666;28;20053;-77
2022/10/31 11:18:02;;;;;;;23.88;17.02;;;14.70;99.90;;;;;;5013648;28;20075;-77
2022/10/31 11:20:35;;;;;;;27.80;16.50;;;14.60;99.90;;;;;;5013893;28;20431;-78
2022/10/31 11:23:18;;;;;;;24.48;16.33;;;14.60;99.90;;;;;;5013309;28;20503;-78
2022/10/31 11:26:10;;;;;;;23.70;16.40;;;14.60;99.90;;;;;;5030208;28;20049;-77
2022/10/31 11:28:35;;;;;;;24.10;14.55;;;14.30;99.90;;;;;;5013040;28;20447;-78
2022/10/31 11:31:10;;;;;;;26.60;15.63;;;14.40;99.90;;;;;;5013638;28;20053;-77
2022/10/31 11:33:39;;;;;;;24.90;14.35;;;14.60;99.90;;;;;;5014551;28;20074;-77
2022/10/31 11:36:26;;;;;;;29.77;15.00;;;14.70;99.90;;;;;;5013628;28;20464;-77
2022/10/31 11:38:53;;;;;;;24.00;12.77;;;14.50;99.90;;;;;;5013548;28;20493;-77
2022/10/31 11:41:39;;;;;;;20.83;13.75;;;14.60;99.90;;;;;;5014679;28;20038;-77
2022/10/31 11:44:17;;;;;;;21.45;13.48;;;14.60;99.90;;;;;;5013017;28;20042;-76
2022/10/31 11:46:49;;;;;;;23.05;13.48;;;14.50;99.90;;;;;;5013187;28;20048;-77
2022/10/31 11:49:38;;;;;;;22.85;14.43;;;14.80;99.90;;;;;;5013425;28;20037;-77
2022/10/31 11:52:15;;;;;;;20.75;12.98;;;14.70;99.90;;;;;;5014323;28;20042;-77
2022/10/31 11:54:46;;;;;;;20.25;12.75;;;14.70;99.90;;;;;;5014108;28;20511;-77
2022/10/31 11:57:31;;;;;;;21.52;12.60;;;15.10;99.90;;;;;;5013191;28;20048;-77
2022/10/31 12:00:03;;;;;;;26.70;13.95;;;15.20;99.90;;;;;;5014333;28;20097;-77
2022/10/31 12:02:28;;;;;;;16.75;10.05;;;15.00;99.90;;;;;;5028958;28;20495;-77
2022/10/31 12:05:07;;;;;;;13.00;9.30;;;15.00;99.90;;;;;;5001462;28;20068;-77
2022/10/31 12:07:33;;;;;;;14.70;7.60;;;15.20;99.90;;;;;;4988118;28;20061;-77
2022/10/31 12:09:59;;;;;;;10.60;6.45;;;15.20;99.90;;;;;;4993194;28;20030;-77
2022/10/31 12:12:49;;;;;;;17.58;8.73;;;15.20;99.90;;;;;;4992889;28;20038;-77
2022/10/31 12:15:36;;;;;;;15.27;8.43;;;15.30;99.90;;;;;;4994317;28;20407;-77
2022/10/31 12:18:22;;;;;;;15.30;8.82;;;15.40;99.90;;;;;;4991757;28;20030;-77
2022/10/31 12:21:08;;;;;;;15.48;7.20;;;15.40;99.90;;;;;;4992997;28;20041;-77
2022/10/31 12:23:52;;;;;;;14.55;5.88;;;15.50;99.90;;;;;;4992700;28;20041;-77
2022/10/31 12:26:36;;;;;;;13.05;5.47;;;15.50;99.90;;;;;;4992701;28;20125;-77
2022/10/31 12:29:34;;;;;;;10.25;5.70;;;15.50;99.90;;;;;;4992649;28;20074;-76
2022/10/31 12:32:38;;;;;;;11.18;5.70;;;15.60;99.90;;;;;;4971172;28;20504;-77
2022/10/31 12:35:22;;;;;;;;;;;15.40;99.90;;;;;;4983821;28;20100;-78
2022/10/31 12:38:25;;;;;;;14.18;7.50;;;15.50;99.90;;;;;;4993822;28;20337;-77
2022/10/31 12:41:24;;;;;;;11.43;6.43;;;15.50;99.90;;;;;;4992375;28;20093;-77
2022/10/31 12:44:04;;;;;;;10.52;7.07;;;15.50;99.90;;;;;;4997159;28;20049;-77
2022/10/31 12:46:55;;;;;;;16.15;7.53;;;15.50;99.90;;;;;;4993753;28;20113;-77
2022/10/31 12:49:27;;;;;;;15.20;6.32;;;15.40;99.90;;;;;;4992327;28;20060;-78
2022/10/31 12:52:31;;;;;;;11.77;6.55;;;15.40;99.90;;;;;;4992468;28;20518;-77